createdAt,value
2023-02-05T00:00:12.870Z,7.30
2023-02-05T00:01:13.897Z,7.30
2023-02-05T00:02:13.147Z,7.40
2023-02-05T00:03:13.139Z,7.40
2023-02-05T00:04:13.758Z,7.40
2023-02-05T00:05:13.735Z,7.20
2023-02-05T00:06:14.064Z,7.10
2023-02-05T00:07:13.070Z,7.10
2023-02-05T00:08:12.977Z,7.10
2023-02-05T00:09:13.108Z,7.20
2023-02-05T00:10:13.228Z,7.20
2023-02-05T00:11:13.866Z,7.20
2023-02-05T00:12:13.926Z,7.20
2023-02-05T00:13:12.961Z,7.10
2023-02-05T00:14:12.903Z,7.10
2023-02-05T00:15:12.790Z,7.20
2023-02-05T00:16:13.877Z,7.00
2023-02-05T00:17:12.842Z,7.00
2023-02-05T00:18:13.859Z,7.00
2023-02-05T00:19:13.990Z,7.30
2023-02-05T00:20:13.061Z,7.40
2023-02-05T00:21:13.192Z,7.50
2023-02-05T00:22:13.322Z,7.40
2023-02-05T00:23:13.618Z,7.50
2023-02-05T00:24:13.614Z,7.60
2023-02-05T00:25:13.634Z,7.60
2023-02-05T00:26:13.542Z,7.60
2023-02-05T00:27:13.529Z,7.80
2023-02-05T00:28:13.614Z,7.50
2023-02-05T00:29:13.534Z,7.80
2023-02-05T00:30:13.481Z,7.80
2023-02-05T00:31:15.150Z,7.60
2023-02-05T00:32:13.719Z,7.60
2023-02-05T00:33:13.999Z,7.40
2023-02-05T00:34:13.270Z,7.30
2023-02-05T00:35:13.242Z,7.40
2023-02-05T00:36:13.148Z,7.10
2023-02-05T00:37:13.321Z,7.50
2023-02-05T00:38:13.262Z,7.60
2023-02-05T00:39:13.261Z,7.60
2023-02-05T00:40:13.300Z,7.70
2023-02-05T00:41:13.624Z,7.50
2023-02-05T00:42:13.760Z,7.30
2023-02-05T00:43:13.834Z,7.20
2023-02-05T00:44:13.824Z,7.30
2023-02-05T00:45:18.786Z,7.30
2023-02-05T00:46:14.215Z,7.50
2023-02-05T00:47:44.728Z,7.50
2023-02-05T00:48:18.711Z,7.60
2023-02-05T00:49:13.625Z,7.70
2023-02-05T00:50:13.553Z,7.70
2023-02-05T00:51:13.461Z,7.60
2023-02-05T00:52:13.512Z,7.60
2023-02-05T00:53:13.646Z,7.60
2023-02-05T00:54:13.695Z,7.60
2023-02-05T00:55:19.933Z,7.60
2023-02-05T00:56:12.903Z,7.60
2023-02-05T00:57:13.064Z,7.60
2023-02-05T00:58:13.019Z,7.40
2023-02-05T00:59:13.077Z,7.60
2023-02-05T01:00:13.371Z,7.70
2023-02-05T01:01:13.425Z,7.60
2023-02-05T01:02:13.834Z,7.60
2023-02-05T01:03:13.862Z,7.70
2023-02-05T01:04:13.855Z,7.70
2023-02-05T01:05:14.012Z,7.60
2023-02-05T01:06:12.954Z,7.60
2023-02-05T01:07:12.926Z,7.70
2023-02-05T01:08:13.109Z,7.60
2023-02-05T01:09:13.046Z,7.70
2023-02-05T01:10:13.061Z,7.60
2023-02-05T01:11:13.174Z,7.60
2023-02-05T01:12:13.340Z,7.40
2023-02-05T01:13:13.375Z,7.60
2023-02-05T01:14:13.358Z,7.60
2023-02-05T01:15:13.507Z,7.60
2023-02-05T01:16:13.955Z,7.70
2023-02-05T01:17:13.221Z,7.60
2023-02-05T01:18:13.417Z,7.70
2023-02-05T01:19:13.367Z,7.70
2023-02-05T01:20:13.441Z,7.90
2023-02-05T01:21:13.620Z,7.80
2023-02-05T01:22:13.462Z,7.80
2023-02-05T01:23:13.411Z,7.60
2023-02-05T01:24:13.286Z,7.60
2023-02-05T01:25:13.475Z,7.60
2023-02-05T01:26:13.339Z,7.50
2023-02-05T01:27:13.369Z,7.50
2023-02-05T01:28:13.617Z,7.50
2023-02-05T01:29:14.056Z,7.80
2023-02-05T01:30:13.107Z,7.80
2023-02-05T01:31:13.193Z,7.70
2023-02-05T01:32:13.519Z,7.70
2023-02-05T01:33:13.582Z,7.60
2023-02-05T01:34:13.790Z,7.60
2023-02-05T01:35:13.960Z,7.70
2023-02-05T01:36:13.131Z,7.50
2023-02-05T01:37:13.072Z,7.30
2023-02-05T01:38:13.317Z,7.30
2023-02-05T01:39:13.243Z,7.20
2023-02-05T01:40:13.210Z,7.20
2023-02-05T01:41:13.187Z,7.50
2023-02-05T01:42:13.599Z,7.50
2023-02-05T01:43:13.669Z,7.60
2023-02-05T01:44:18.656Z,7.40
2023-02-05T01:45:13.837Z,7.70
2023-02-05T01:46:13.786Z,7.70
2023-02-05T01:47:14.245Z,7.80
2023-02-05T01:48:13.419Z,7.70
2023-02-05T01:49:14.888Z,7.90
2023-02-05T01:50:13.168Z,7.70
2023-02-05T01:51:13.181Z,7.70
2023-02-05T01:52:13.325Z,7.80
2023-02-05T01:53:13.252Z,7.80
2023-02-05T01:54:13.470Z,7.70
2023-02-05T01:55:13.925Z,7.70
2023-02-05T01:56:12.841Z,7.60
2023-02-05T01:57:14.091Z,7.50
2023-02-05T01:58:13.303Z,7.60
2023-02-05T01:59:13.419Z,7.70
2023-02-05T02:00:13.569Z,7.60
2023-02-05T02:01:13.730Z,7.50
2023-02-05T02:02:14.144Z,7.50
2023-02-05T02:03:13.131Z,7.60
2023-02-05T02:04:13.250Z,7.80
2023-02-05T02:05:13.390Z,7.70
2023-02-05T02:06:13.300Z,7.80
2023-02-05T02:07:13.388Z,7.80
2023-02-05T02:08:13.356Z,8.00
2023-02-05T02:09:13.530Z,7.60
2023-02-05T02:10:13.394Z,7.80
2023-02-05T02:11:13.306Z,8.00
2023-02-05T02:12:13.183Z,7.70
2023-02-05T02:13:13.098Z,7.80
2023-02-05T02:14:13.375Z,7.80
2023-02-05T02:15:13.521Z,7.40
2023-02-05T02:16:13.560Z,7.40
2023-02-05T02:17:14.679Z,7.70
2023-02-05T02:18:14.084Z,7.60
2023-02-05T02:19:13.059Z,7.60
2023-02-05T02:20:13.121Z,7.60
2023-02-05T02:21:13.304Z,7.40
2023-02-05T02:22:13.368Z,7.30
2023-02-05T02:23:13.385Z,7.30
2023-02-05T02:24:13.275Z,7.50
2023-02-05T02:25:13.282Z,7.50
2023-02-05T02:26:13.219Z,7.50
2023-02-05T02:27:13.314Z,7.50
2023-02-05T02:28:13.325Z,7.60
2023-02-05T02:29:13.196Z,7.50
2023-02-05T02:30:13.318Z,7.60
2023-02-05T02:31:13.319Z,7.70
2023-02-05T02:32:13.329Z,7.70
2023-02-05T02:33:13.272Z,7.60
2023-02-05T02:34:13.493Z,7.60
2023-02-05T02:35:13.499Z,7.60
2023-02-05T02:36:13.403Z,7.50
2023-02-05T02:37:13.328Z,7.40
2023-02-05T02:38:13.304Z,7.40
2023-02-05T02:39:13.351Z,7.40
2023-02-05T02:40:13.367Z,7.60
2023-02-05T02:41:13.368Z,7.50
2023-02-05T02:42:13.371Z,7.40
2023-02-05T02:43:13.457Z,7.20
2023-02-05T02:44:14.047Z,7.30
2023-02-05T02:45:13.113Z,7.30
2023-02-05T02:46:13.297Z,7.40
2023-02-05T02:47:13.538Z,7.50
2023-02-05T02:48:13.519Z,7.60
2023-02-05T02:49:13.573Z,7.50
2023-02-05T02:50:14.022Z,7.40
2023-02-05T02:51:13.019Z,7.30
2023-02-05T02:52:12.962Z,7.50
2023-02-05T02:53:12.946Z,7.60
2023-02-05T02:54:13.359Z,7.60
2023-02-05T02:55:13.556Z,7.70
2023-02-05T02:56:13.801Z,7.70
2023-02-05T02:57:13.705Z,7.60
2023-02-05T02:58:13.961Z,7.50
2023-02-05T02:59:12.959Z,7.60
2023-02-05T03:00:12.894Z,7.60
2023-02-05T03:01:12.989Z,7.50
2023-02-05T03:02:13.252Z,7.70
2023-02-05T03:03:13.182Z,7.70
2023-02-05T03:04:13.417Z,7.40
2023-02-05T03:05:13.766Z,7.50
2023-02-05T03:06:14.109Z,7.60
2023-02-05T03:07:13.189Z,7.90
2023-02-05T03:08:13.509Z,7.60
2023-02-05T03:09:13.871Z,7.60
2023-02-05T03:10:13.827Z,7.40
2023-02-05T03:11:13.744Z,7.40
2023-02-05T03:12:13.891Z,7.90
2023-02-05T03:13:12.902Z,7.70
2023-02-05T03:14:12.762Z,7.50
2023-02-05T03:15:13.654Z,7.50
2023-02-05T03:16:13.611Z,7.60
2023-02-05T03:17:14.141Z,7.40
2023-02-05T03:18:13.298Z,7.60
2023-02-05T03:19:13.431Z,7.70
2023-02-05T03:20:13.528Z,7.70
2023-02-05T03:21:13.414Z,7.10
2023-02-05T03:22:13.803Z,7.30
2023-02-05T03:23:13.809Z,7.50
2023-02-05T03:24:13.772Z,7.50
2023-02-05T03:25:13.758Z,7.60
2023-02-05T03:26:13.858Z,7.50
2023-02-05T03:27:13.856Z,7.50
2023-02-05T03:28:14.248Z,7.50
2023-02-05T03:29:13.862Z,7.50
2023-02-05T03:30:13.811Z,7.60
2023-02-05T03:31:13.978Z,7.20
2023-02-05T03:32:12.884Z,7.30
2023-02-05T03:33:13.875Z,7.30
2023-02-05T03:34:13.955Z,7.40
2023-02-05T03:35:13.043Z,7.40
2023-02-05T03:36:13.420Z,7.30
2023-02-05T03:37:13.396Z,7.30
2023-02-05T03:38:13.458Z,7.30
2023-02-05T03:39:13.489Z,7.50
2023-02-05T03:40:13.573Z,7.70
2023-02-05T03:41:13.854Z,7.70
2023-02-05T03:42:14.793Z,7.30
2023-02-05T03:43:13.982Z,7.20
2023-02-05T03:44:13.200Z,7.30
2023-02-05T03:45:13.147Z,7.40
2023-02-05T03:46:13.470Z,7.40
2023-02-05T03:47:13.651Z,7.50
2023-02-05T03:48:13.946Z,7.50
2023-02-05T03:49:12.887Z,7.70
2023-02-05T03:50:12.867Z,7.50
2023-02-05T03:51:14.086Z,7.50
2023-02-05T03:52:13.087Z,7.50
2023-02-05T03:53:13.235Z,7.20
2023-02-05T03:54:13.308Z,7.30
2023-02-05T03:55:13.641Z,7.50
2023-02-05T03:56:13.847Z,7.50
2023-02-05T03:57:13.072Z,7.70
2023-02-05T03:58:13.127Z,7.90
2023-02-05T03:59:13.648Z,7.90
2023-02-05T04:00:13.650Z,7.80
2023-02-05T04:01:13.970Z,7.70
2023-02-05T04:02:12.997Z,7.60
2023-02-05T04:03:13.031Z,7.50
2023-02-05T04:04:13.231Z,7.60
2023-02-05T04:05:13.153Z,7.30
2023-02-05T04:06:13.098Z,7.30
2023-02-05T04:07:13.105Z,7.40
2023-02-05T04:08:13.053Z,7.30
2023-02-05T04:09:13.074Z,7.30
2023-02-05T04:10:13.081Z,7.40
2023-02-05T04:11:13.081Z,7.40
2023-02-05T04:12:13.263Z,7.50
2023-02-05T04:13:13.962Z,7.70
2023-02-05T04:14:13.391Z,7.70
2023-02-05T04:15:13.938Z,7.80
2023-02-05T04:16:13.098Z,7.80
2023-02-05T04:17:13.282Z,7.80
2023-02-05T04:18:13.165Z,8.30
2023-02-05T04:19:18.646Z,8.10
2023-02-05T04:20:13.902Z,7.80
2023-02-05T04:21:13.314Z,8.00
2023-02-05T04:22:13.502Z,7.80
2023-02-05T04:23:13.383Z,7.60
2023-02-05T04:24:13.552Z,7.60
2023-02-05T04:25:13.643Z,7.60
2023-02-05T04:26:14.045Z,7.90
2023-02-05T04:27:13.013Z,8.00
2023-02-05T04:28:13.114Z,8.10
2023-02-05T04:29:13.155Z,8.10
2023-02-05T04:30:13.332Z,7.80
2023-02-05T04:31:13.467Z,7.80
2023-02-05T04:32:18.516Z,7.80
2023-02-05T04:33:13.615Z,8.00
2023-02-05T04:34:13.578Z,7.80
2023-02-05T04:35:13.638Z,7.60
2023-02-05T04:36:13.961Z,7.60
2023-02-05T04:37:14.267Z,7.50
2023-02-05T04:38:13.583Z,7.50
2023-02-05T04:39:13.702Z,7.50
2023-02-05T04:40:14.105Z,7.60
2023-02-05T04:41:13.270Z,7.50
2023-02-05T04:42:13.238Z,7.70
2023-02-05T04:43:13.319Z,7.50
2023-02-05T04:44:13.280Z,8.00
2023-02-05T04:45:18.217Z,7.40
2023-02-05T04:46:13.444Z,7.20
2023-02-05T04:47:13.534Z,7.20
2023-02-05T04:48:13.426Z,7.20
2023-02-05T04:49:13.452Z,7.20
2023-02-05T04:50:13.352Z,7.20
2023-02-05T04:51:13.435Z,7.20
2023-02-05T04:52:13.290Z,7.30
2023-02-05T04:53:13.475Z,7.40
2023-02-05T04:54:13.575Z,7.30
2023-02-05T04:55:13.726Z,7.20
2023-02-05T04:56:13.839Z,7.20
2023-02-05T04:57:14.069Z,7.20
2023-02-05T04:58:12.877Z,7.20
2023-02-05T04:59:13.759Z,7.00
2023-02-05T05:00:13.618Z,7.20
2023-02-05T05:01:13.587Z,7.30
2023-02-05T05:02:13.580Z,7.40
2023-02-05T05:03:13.529Z,7.00
2023-02-05T05:04:13.453Z,7.10
2023-02-05T05:05:13.525Z,7.10
2023-02-05T05:06:14.082Z,7.50
2023-02-05T05:07:12.932Z,7.80
2023-02-05T05:08:12.871Z,7.50
2023-02-05T05:09:14.334Z,7.40
2023-02-05T05:10:13.270Z,7.20
2023-02-05T05:11:13.270Z,7.00
2023-02-05T05:12:13.161Z,7.30
2023-02-05T05:13:13.437Z,7.30
2023-02-05T05:14:13.490Z,7.50
2023-02-05T05:15:13.683Z,7.60
2023-02-05T05:16:13.813Z,7.30
2023-02-05T05:17:14.012Z,7.20
2023-02-05T05:18:13.136Z,7.30
2023-02-05T05:19:13.094Z,7.20
2023-02-05T05:20:13.231Z,7.30
2023-02-05T05:21:13.285Z,7.30
2023-02-05T05:22:13.420Z,7.30
2023-02-05T05:23:13.505Z,7.40
2023-02-05T05:24:13.433Z,7.30
2023-02-05T05:25:13.685Z,7.50
2023-02-05T05:26:14.030Z,7.50
2023-02-05T05:27:13.063Z,7.40
2023-02-05T05:28:13.052Z,7.50
2023-02-05T05:29:13.030Z,7.40
2023-02-05T05:30:12.920Z,7.40
2023-02-05T05:31:12.913Z,7.30
2023-02-05T05:32:13.017Z,7.20
2023-02-05T05:33:13.007Z,7.20
2023-02-05T05:34:12.918Z,7.40
2023-02-05T05:35:12.897Z,7.40
2023-02-05T05:36:13.053Z,7.20
2023-02-05T05:37:13.319Z,7.40
2023-02-05T05:38:13.253Z,7.50
2023-02-05T05:39:13.356Z,7.40
2023-02-05T05:40:13.489Z,7.00
2023-02-05T05:41:13.576Z,7.00
2023-02-05T05:42:13.401Z,7.20
2023-02-05T05:43:13.387Z,7.20
2023-02-05T05:44:13.772Z,7.10
2023-02-05T05:45:13.761Z,7.30
2023-02-05T05:46:13.683Z,7.40
2023-02-05T05:47:13.638Z,7.70
2023-02-05T05:48:25.602Z,7.60
2023-02-05T05:49:14.241Z,7.50
2023-02-05T05:50:13.675Z,7.50
2023-02-05T05:51:13.991Z,7.60
2023-02-05T05:52:13.530Z,7.40
2023-02-05T05:53:13.429Z,7.30
2023-02-05T05:54:13.637Z,7.40
2023-02-05T05:55:50.173Z,7.50
2023-02-05T05:56:13.442Z,7.60
2023-02-05T05:57:13.841Z,7.80
2023-02-05T05:58:24.254Z,7.90
2023-02-05T05:59:13.339Z,8.00
2023-02-05T06:00:55.669Z,7.90
2023-02-05T06:01:13.987Z,7.90
2023-02-05T06:02:13.235Z,7.90
2023-02-05T06:03:13.175Z,7.80
2023-02-05T06:04:13.161Z,7.60
2023-02-05T06:05:13.580Z,7.50
2023-02-05T06:06:13.843Z,7.80
2023-02-05T06:07:13.936Z,7.60
2023-02-05T06:08:42.256Z,7.60
2023-02-05T06:09:13.226Z,7.50
2023-02-05T06:10:13.328Z,7.50
2023-02-05T06:11:13.463Z,7.60
2023-02-05T06:12:13.694Z,7.50
2023-02-05T06:13:13.831Z,7.20
2023-02-05T06:14:13.904Z,7.60
2023-02-05T06:15:13.100Z,7.50
2023-02-05T06:16:13.198Z,7.50
2023-02-05T06:17:13.789Z,7.40
2023-02-05T06:18:13.956Z,7.40
2023-02-05T06:19:13.220Z,7.50
2023-02-05T06:20:13.226Z,7.20
2023-02-05T06:21:13.576Z,7.60
2023-02-05T06:22:20.741Z,7.50
2023-02-05T06:23:13.980Z,7.50
2023-02-05T06:24:13.595Z,7.50
2023-02-05T06:25:14.086Z,7.20
2023-02-05T06:26:13.621Z,7.30
2023-02-05T06:27:13.880Z,7.70
2023-02-05T06:28:13.414Z,7.40
2023-02-05T06:29:14.090Z,7.70
2023-02-05T06:30:13.298Z,7.50
2023-02-05T06:31:13.751Z,7.40
2023-02-05T06:32:13.803Z,7.10
2023-02-05T06:33:13.948Z,7.40
2023-02-05T06:34:12.972Z,7.60
2023-02-05T06:35:12.983Z,7.60
2023-02-05T06:36:13.417Z,7.60
2023-02-05T06:37:13.466Z,7.50
2023-02-05T06:38:13.488Z,7.30
2023-02-05T06:39:13.606Z,7.30
2023-02-05T06:40:13.671Z,7.40
2023-02-05T06:41:14.990Z,7.40
2023-02-05T06:42:12.890Z,7.50
2023-02-05T06:43:19.065Z,7.70
2023-02-05T06:44:18.022Z,7.80
2023-02-05T06:45:12.908Z,7.50
2023-02-05T06:46:12.923Z,7.40
2023-02-05T06:47:12.988Z,7.40
2023-02-05T06:48:13.003Z,7.70
2023-02-05T06:49:12.999Z,7.30
2023-02-05T06:50:12.965Z,7.70
2023-02-05T06:51:22.980Z,7.50
2023-02-05T06:52:26.478Z,7.30
2023-02-05T06:53:13.403Z,7.40
2023-02-05T06:54:38.444Z,7.50
2023-02-05T06:55:13.188Z,7.70
2023-02-05T06:56:13.478Z,7.40
2023-02-05T06:57:13.630Z,7.70
2023-02-05T06:58:13.690Z,7.50
2023-02-05T06:59:46.800Z,7.80
2023-02-05T07:00:13.552Z,8.00
2023-02-05T07:01:24.024Z,7.80
2023-02-05T07:02:13.338Z,7.70
2023-02-05T07:03:13.180Z,8.00
2023-02-05T07:05:13.054Z,7.90
2023-02-05T07:06:31.299Z,7.90
2023-02-05T07:07:13.977Z,7.80
2023-02-05T07:08:13.237Z,8.30
2023-02-05T07:09:13.229Z,8.30
2023-02-05T07:10:13.132Z,7.70
2023-02-05T07:11:13.416Z,7.70
2023-02-05T07:12:13.654Z,7.60
2023-02-05T07:13:13.699Z,7.90
2023-02-05T07:14:13.725Z,8.00
2023-02-05T07:15:13.870Z,8.20
2023-02-05T07:16:33.310Z,8.20
2023-02-05T07:17:13.472Z,8.30
2023-02-05T07:18:13.457Z,8.30
2023-02-05T07:20:13.447Z,8.10
2023-02-05T07:21:14.067Z,7.50
2023-02-05T07:22:26.956Z,8.00
2023-02-05T07:23:13.138Z,7.90
2023-02-05T07:24:13.217Z,7.70
2023-02-05T07:25:13.486Z,7.60
2023-02-05T07:27:13.410Z,7.60
2023-02-05T07:28:13.771Z,7.60
2023-02-05T07:29:13.838Z,7.80
2023-02-05T07:30:13.741Z,7.70
2023-02-05T07:31:13.730Z,7.70
2023-02-05T07:33:13.452Z,7.60
2023-02-05T07:34:15.033Z,7.70
2023-02-05T07:35:13.094Z,7.60
2023-02-05T07:36:13.211Z,7.90
2023-02-05T07:39:12.977Z,7.70
2023-02-05T07:41:27.476Z,7.70
2023-02-05T07:42:13.541Z,7.80
2023-02-05T07:43:18.692Z,7.70
2023-02-05T07:44:18.750Z,7.80
2023-02-05T07:45:14.062Z,7.60
2023-02-05T07:46:13.538Z,7.40
2023-02-05T07:47:13.575Z,7.70
2023-02-05T07:48:47.382Z,7.60
2023-02-05T07:50:13.183Z,7.70
2023-02-05T07:51:42.908Z,7.60
2023-02-05T07:52:13.377Z,7.70
2023-02-05T07:53:13.885Z,7.80
2023-02-05T07:54:44.325Z,7.80
2023-02-05T07:55:13.397Z,7.50
2023-02-05T07:56:13.457Z,7.50
2023-02-05T07:57:13.772Z,7.50
2023-02-05T07:58:13.746Z,7.50
2023-02-05T07:59:13.960Z,7.50
2023-02-05T08:00:14.579Z,7.50
2023-02-05T08:01:56.615Z,7.60
2023-02-05T08:02:13.829Z,7.60
2023-02-05T08:03:13.921Z,7.80
2023-02-05T08:04:13.453Z,7.70
2023-02-05T08:05:13.978Z,7.60
2023-02-05T08:06:18.109Z,7.70
2023-02-05T08:07:26.469Z,7.70
2023-02-05T08:08:18.627Z,7.80
2023-02-05T08:09:46.741Z,7.90
2023-02-05T08:10:13.533Z,7.90
2023-02-05T08:11:13.935Z,7.80
2023-02-05T08:12:12.965Z,7.80
2023-02-05T08:13:12.992Z,7.50
2023-02-05T08:14:13.281Z,7.80
2023-02-05T08:15:13.511Z,8.10
2023-02-05T08:16:13.730Z,7.80
2023-02-05T08:17:13.872Z,7.60
2023-02-05T08:18:13.767Z,7.70
2023-02-05T08:19:13.829Z,7.50
2023-02-05T08:20:14.039Z,7.40
2023-02-05T08:21:13.417Z,7.70
2023-02-05T08:22:13.607Z,7.60
2023-02-05T08:23:28.775Z,7.50
2023-02-05T08:24:13.713Z,7.50
2023-02-05T08:25:13.656Z,7.50
2023-02-05T08:26:13.808Z,7.40
2023-02-05T08:27:13.929Z,7.20
2023-02-05T08:28:13.060Z,7.30
2023-02-05T08:29:13.280Z,7.20
2023-02-05T08:31:17.004Z,7.20
2023-02-05T08:32:13.383Z,7.30
2023-02-05T08:33:13.342Z,7.20
2023-02-05T08:34:13.355Z,7.40
2023-02-05T08:35:13.335Z,7.60
2023-02-05T08:36:13.805Z,7.60
2023-02-05T08:37:14.111Z,7.20
2023-02-05T08:38:13.407Z,7.50
2023-02-05T08:39:13.715Z,7.10
2023-02-05T08:40:13.785Z,7.30
2023-02-05T08:41:13.975Z,7.30
2023-02-05T08:42:13.146Z,7.10
2023-02-05T08:43:13.433Z,7.10
2023-02-05T08:44:13.338Z,7.40
2023-02-05T08:45:13.377Z,7.30
2023-02-05T08:46:13.437Z,7.30
2023-02-05T08:47:13.412Z,7.30
2023-02-05T08:49:13.640Z,7.60
2023-02-05T08:50:13.487Z,7.60
2023-02-05T08:51:13.539Z,7.20
2023-02-05T08:52:13.818Z,7.10
2023-02-05T08:54:18.188Z,6.90
2023-02-05T08:55:13.529Z,7.10
2023-02-05T08:58:25.001Z,6.90
2023-02-05T09:00:18.209Z,6.90
2023-02-05T09:01:13.407Z,6.90
2023-02-05T09:02:14.778Z,7.10
2023-02-05T09:03:13.970Z,7.10
2023-02-05T09:05:13.974Z,6.60
2023-02-05T09:06:20.983Z,6.70
2023-02-05T09:07:14.348Z,6.70
2023-02-05T09:08:13.510Z,6.80
2023-02-05T09:09:13.876Z,6.50
2023-02-05T09:10:14.130Z,6.70
2023-02-05T09:11:34.805Z,6.90
2023-02-05T09:12:50.471Z,6.60
2023-02-05T09:13:18.246Z,6.70
2023-02-05T09:14:13.182Z,6.60
2023-02-05T09:15:24.409Z,6.90
2023-02-05T09:16:13.467Z,6.80
2023-02-05T09:17:41.633Z,6.90
2023-02-05T09:18:13.007Z,6.80
2023-02-05T09:19:45.741Z,6.70
2023-02-05T09:20:14.236Z,6.70
2023-02-05T09:21:18.642Z,7.10
2023-02-05T09:22:13.829Z,7.10
2023-02-05T09:23:52.504Z,6.70
2023-02-05T09:24:26.461Z,6.70
2023-02-05T09:25:13.714Z,6.70
2023-02-05T09:26:14.020Z,6.80
2023-02-05T09:27:12.891Z,6.70
2023-02-05T09:28:29.469Z,6.80
2023-02-05T09:29:13.389Z,6.70
2023-02-05T09:30:13.648Z,6.70
2023-02-05T09:31:13.876Z,6.90
2023-02-05T09:32:12.831Z,6.90
2023-02-05T09:33:13.786Z,6.90
2023-02-05T09:34:14.137Z,7.20
2023-02-05T09:35:13.296Z,6.70
2023-02-05T09:36:13.639Z,6.80
2023-02-05T09:37:13.644Z,6.90
2023-02-05T09:38:13.595Z,7.20
2023-02-05T09:39:52.317Z,7.10
2023-02-05T09:40:50.004Z,7.20
2023-02-05T09:41:13.116Z,7.00
2023-02-05T09:42:13.294Z,6.90
2023-02-05T09:43:13.599Z,6.90
2023-02-05T09:44:13.824Z,6.80
2023-02-05T09:45:13.846Z,6.80
2023-02-05T09:46:13.869Z,6.80
2023-02-05T09:47:12.826Z,6.50
2023-02-05T09:48:14.451Z,6.90
2023-02-05T09:49:13.712Z,6.60
2023-02-05T09:50:18.753Z,6.80
2023-02-05T09:51:13.991Z,6.80
2023-02-05T09:52:22.692Z,6.80
2023-02-05T09:54:13.559Z,6.90
2023-02-05T09:55:13.728Z,7.10
2023-02-05T09:56:14.051Z,7.00
2023-02-05T09:57:13.286Z,6.70
2023-02-05T09:58:40.327Z,6.90
2023-02-05T09:59:13.377Z,7.20
2023-02-05T10:00:13.559Z,7.40
2023-02-05T10:01:13.544Z,7.00
2023-02-05T10:02:36.143Z,7.00
2023-02-05T10:03:13.451Z,7.00
2023-02-05T10:05:12.929Z,6.80
2023-02-05T10:06:13.257Z,6.90
2023-02-05T10:07:13.435Z,6.80
2023-02-05T10:08:35.387Z,7.00
2023-02-05T10:09:20.562Z,7.00
2023-02-05T10:10:13.763Z,7.00
2023-02-05T10:11:14.010Z,7.10
2023-02-05T10:12:12.899Z,7.10
2023-02-05T10:13:13.053Z,7.30
2023-02-05T10:14:13.106Z,7.20
2023-02-05T10:15:13.031Z,7.20
2023-02-05T10:16:13.318Z,6.90
2023-02-05T10:17:13.244Z,7.10
2023-02-05T10:18:13.127Z,6.70
2023-02-05T10:19:18.514Z,6.70
2023-02-05T10:20:13.768Z,7.10
2023-02-05T10:21:13.724Z,7.00
2023-02-05T10:22:13.674Z,7.40
2023-02-05T10:23:13.986Z,7.60
2023-02-05T10:24:13.453Z,7.10
2023-02-05T10:25:13.756Z,7.20
2023-02-05T10:26:13.835Z,7.00
2023-02-05T10:27:14.155Z,7.40
2023-02-05T10:28:13.324Z,7.30
2023-02-05T10:29:13.422Z,7.20
2023-02-05T10:30:13.340Z,7.00
2023-02-05T10:31:13.882Z,7.10
2023-02-05T10:32:12.931Z,7.20
2023-02-05T10:33:13.026Z,7.10
2023-02-05T10:34:12.994Z,6.80
2023-02-05T10:35:12.934Z,6.80
2023-02-05T10:36:13.103Z,7.10
2023-02-05T10:37:13.189Z,7.20
2023-02-05T10:38:13.503Z,7.30
2023-02-05T10:39:14.225Z,7.20
2023-02-05T10:40:13.338Z,6.90
2023-02-05T10:41:13.438Z,7.20
2023-02-05T10:42:13.535Z,7.10
2023-02-05T10:43:13.457Z,7.20
2023-02-05T10:44:13.333Z,7.00
2023-02-05T10:45:13.374Z,6.80
2023-02-05T10:46:13.332Z,7.10
2023-02-05T10:47:13.322Z,6.90
2023-02-05T10:48:13.264Z,6.90
2023-02-05T10:49:13.212Z,6.80
2023-02-05T10:50:13.471Z,6.70
2023-02-05T10:51:13.643Z,7.00
2023-02-05T10:52:13.819Z,7.10
2023-02-05T10:53:14.081Z,6.60
2023-02-05T10:54:13.030Z,6.70
2023-02-05T10:55:12.922Z,7.00
2023-02-05T10:56:13.173Z,7.20
2023-02-05T10:57:13.310Z,7.10
2023-02-05T10:58:13.656Z,7.10
2023-02-05T10:59:13.794Z,6.80
2023-02-05T11:00:13.745Z,7.10
2023-02-05T11:01:13.904Z,6.80
2023-02-05T11:02:12.932Z,6.80
2023-02-05T11:03:13.122Z,6.60
2023-02-05T11:04:13.004Z,7.00
2023-02-05T11:05:13.083Z,7.00
2023-02-05T11:06:12.976Z,7.30
2023-02-05T11:07:13.368Z,6.90
2023-02-05T11:08:13.410Z,7.00
2023-02-05T11:09:13.362Z,7.10
2023-02-05T11:10:13.214Z,6.90
2023-02-05T11:11:13.329Z,6.70
2023-02-05T11:12:13.398Z,7.10
2023-02-05T11:13:13.547Z,6.90
2023-02-05T11:14:13.531Z,6.60
2023-02-05T11:15:13.443Z,6.90
2023-02-05T11:16:13.548Z,7.00
2023-02-05T11:17:13.556Z,6.90
2023-02-05T11:18:13.550Z,6.90
2023-02-05T11:19:14.805Z,6.80
2023-02-05T11:20:13.834Z,6.80
2023-02-05T11:21:13.870Z,7.00
2023-02-05T11:22:12.836Z,6.80
2023-02-05T11:23:14.162Z,6.80
2023-02-05T11:24:13.066Z,7.00
2023-02-05T11:25:12.961Z,6.70
2023-02-05T11:26:13.054Z,6.60
2023-02-05T11:27:17.959Z,6.80
2023-02-05T11:28:12.953Z,6.70
2023-02-05T11:29:12.838Z,7.20
2023-02-05T11:30:13.911Z,7.40
2023-02-05T11:31:13.404Z,7.10
2023-02-05T11:32:13.962Z,7.20
2023-02-05T11:33:13.342Z,7.50
2023-02-05T11:34:13.442Z,7.10
2023-02-05T11:35:13.445Z,6.30
2023-02-05T11:36:13.636Z,6.80
2023-02-05T11:37:13.804Z,6.90
2023-02-05T11:38:14.073Z,7.10
2023-02-05T11:39:13.359Z,7.00
2023-02-05T11:40:13.427Z,7.00
2023-02-05T11:41:13.666Z,7.40
2023-02-05T11:42:13.682Z,7.30
2023-02-05T11:43:14.841Z,7.30
2023-02-05T11:44:13.795Z,7.30
2023-02-05T11:45:13.791Z,6.80
2023-02-05T11:46:13.824Z,7.00
2023-02-05T11:47:14.008Z,6.70
2023-02-05T11:48:12.959Z,7.40
2023-02-05T11:49:13.148Z,7.50
2023-02-05T11:50:13.073Z,7.30
2023-02-05T11:51:13.114Z,7.30
2023-02-05T11:52:13.196Z,7.40
2023-02-05T11:53:13.129Z,7.50
2023-02-05T11:54:13.040Z,7.20
2023-02-05T11:55:13.109Z,7.30
2023-02-05T11:56:25.143Z,7.00
2023-02-05T11:57:13.449Z,7.10
2023-02-05T11:58:13.471Z,7.10
2023-02-05T11:59:13.701Z,7.10
2023-02-05T12:00:13.913Z,7.30
2023-02-05T12:01:13.153Z,7.30
2023-02-05T12:02:13.171Z,7.40
2023-02-05T12:03:13.299Z,6.80
2023-02-05T12:04:13.236Z,7.00
2023-02-05T12:05:13.393Z,7.10
2023-02-05T12:06:13.466Z,7.00
2023-02-05T12:07:13.322Z,7.20
2023-02-05T12:08:13.382Z,7.20
2023-02-05T12:09:13.797Z,7.10
2023-02-05T12:10:13.816Z,7.40
2023-02-05T12:11:13.906Z,7.30
2023-02-05T12:12:12.847Z,7.40
2023-02-05T12:13:14.017Z,7.60
2023-02-05T12:14:13.510Z,7.50
2023-02-05T12:15:13.426Z,7.10
2023-02-05T12:16:13.381Z,7.10
2023-02-05T12:17:13.416Z,7.10
2023-02-05T12:18:13.403Z,6.90
2023-02-05T12:19:13.504Z,7.30
2023-02-05T12:20:13.581Z,6.90
2023-02-05T12:21:13.489Z,7.00
2023-02-05T12:22:13.538Z,7.20
2023-02-05T12:23:13.435Z,7.30
2023-02-05T12:24:13.376Z,7.00
2023-02-05T12:25:13.269Z,7.10
2023-02-05T12:26:13.491Z,6.90
2023-02-05T12:27:13.559Z,6.90
2023-02-05T12:28:13.625Z,7.00
2023-02-05T12:29:13.599Z,7.10
2023-02-05T12:30:13.521Z,7.00
2023-02-05T12:31:15.065Z,7.50
2023-02-05T12:32:13.609Z,7.50
2023-02-05T12:33:13.534Z,7.30
2023-02-05T12:34:13.670Z,7.40
2023-02-05T12:35:13.795Z,7.10
2023-02-05T12:36:14.088Z,7.00
2023-02-05T12:37:13.163Z,7.10
2023-02-05T12:38:21.076Z,7.10
2023-02-05T12:39:13.461Z,7.00
2023-02-05T12:40:13.503Z,7.30
2023-02-05T12:41:13.506Z,7.60
2023-02-05T12:42:13.447Z,7.20
2023-02-05T12:43:13.433Z,7.00
2023-02-05T12:44:13.522Z,7.10
2023-02-05T12:45:13.333Z,7.30
2023-02-05T12:46:13.578Z,7.10
2023-02-05T12:47:14.261Z,7.00
2023-02-05T12:48:13.174Z,7.00
2023-02-05T12:49:13.122Z,7.00
2023-02-05T12:50:13.063Z,7.20
2023-02-05T12:51:13.332Z,7.00
2023-02-05T12:52:13.537Z,7.00
2023-02-05T12:53:13.533Z,6.90
2023-02-05T12:54:13.586Z,7.10
2023-02-05T12:55:13.725Z,7.10
2023-02-05T12:56:13.842Z,6.90
2023-02-05T12:57:13.921Z,7.30
2023-02-05T12:58:13.274Z,7.20
2023-02-05T12:59:14.810Z,7.20
2023-02-05T13:00:14.011Z,6.90
2023-02-05T13:01:13.337Z,7.10
2023-02-05T13:02:13.676Z,7.10
2023-02-05T13:03:13.986Z,7.00
2023-02-05T13:04:13.210Z,6.90
2023-02-05T13:05:13.283Z,7.00
2023-02-05T13:06:13.225Z,6.80
2023-02-05T13:07:13.175Z,6.90
2023-02-05T13:08:13.218Z,6.90
2023-02-05T13:09:13.176Z,6.90
2023-02-05T13:10:13.160Z,6.90
2023-02-05T13:11:13.536Z,6.90
2023-02-05T13:12:13.922Z,6.90
2023-02-05T13:13:13.284Z,6.90
2023-02-05T13:14:13.241Z,6.80
2023-02-05T13:15:13.801Z,6.90
2023-02-05T13:16:13.793Z,7.10
2023-02-05T13:17:13.964Z,7.00
2023-02-05T13:18:12.961Z,7.20
2023-02-05T13:19:13.278Z,6.90
2023-02-05T13:20:13.260Z,7.20
2023-02-05T13:21:13.225Z,7.20
2023-02-05T13:22:13.409Z,7.10
2023-02-05T13:23:13.250Z,7.10
2023-02-05T13:24:13.277Z,7.00
2023-02-05T13:25:13.376Z,6.90
2023-02-05T13:26:13.330Z,6.90
2023-02-05T13:27:13.534Z,7.10
2023-02-05T13:28:13.414Z,7.00
2023-02-05T13:29:13.859Z,6.70
2023-02-05T13:30:13.954Z,6.90
2023-02-05T13:31:12.929Z,6.70
2023-02-05T13:32:15.986Z,6.90
2023-02-05T13:33:13.478Z,7.10
2023-02-05T13:34:13.502Z,7.00
2023-02-05T13:35:13.660Z,7.10